Gildeskaal — LLDI — position and weather

sailwx.info

Track history (hours):
 
Tides and Currents Weather Stations Pressure Air Temp Water Temp Dewpoint Dewpoint Depression Visibility Wind Speed Wind Dir Waves Ship Positions

Gildeskaal

Last reported at 2016-Jul-24 10:31 UTC. Time now 2016-Jul-24 10:44 UTC.
Position N 67°04' E 014°04'.

Length 52 m; draft 3.2 m.

Type: Ship. MMSI: 259680000.

Date/timePositionNaut miles runAvg speedWind from/ knotsBaromVisibWave heightAir tempDewpointWater temp
2016-Jul-24 10:31N 67°04' E 014°04'0 0.0
2016-Jul-24 09:20N 67°04' E 014°04'1 1.0
2016-Jul-24 08:20N 67°05' E 014°02'2 2.9
2016-Jul-24 07:33N 67°07' E 013°59'2 0.2
2016-Jul-23 17:33N 67°05' E 014°03'1 0.7
2016-Jul-23 16:27N 67°05' E 014°01'2 2.0
2016-Jul-23 15:33N 67°06' E 013°58'1 0.2
2016-Jul-23 09:33N 67°07' E 013°59'1 0.8
2016-Jul-23 08:32N 67°08' E 013°59'3 2.6
2016-Jul-23 07:33N 67°06' E 013°59'1 1.3
2016-Jul-23 06:30N 67°05' E 014°02'3 1.8
2016-Jul-23 04:33N 67°08' E 013°59'0 0.0
2016-Jul-23 03:33N 67°08' E 013°59'0 0.0
2016-Jul-23 02:33N 67°08' E 013°59'0 0.0
2016-Jul-23 01:33N 67°08' E 013°59'0 0.0
2016-Jul-23 00:33N 67°08' E 013°59'0 0.0
2016-Jul-22 23:33N 67°08' E 013°59'0 0.0
2016-Jul-22 22:33N 67°08' E 013°59'0 0.0
2016-Jul-22 21:33N 67°08' E 013°59'0 0.0
2016-Jul-22 20:33N 67°08' E 013°59'0 0.0
2016-Jul-22 19:33N 67°08' E 013°59'4 3.8
2016-Jul-22 18:33N 67°05' E 014°04'3 2.9
2016-Jul-22 17:33N 67°07' E 013°59'2 0.8
2016-Jul-22 15:33N 67°05' E 013°59'1 0.8
2016-Jul-22 14:33N 67°05' E 014°01'1 0.8
2016-Jul-22 13:33N 67°05' E 014°03'3 3.4
2016-Jul-22 12:33N 67°08' E 013°59'0 0.0
2016-Jul-22 11:33N 67°08' E 013°59'3 3.3
2016-Jul-22 10:32N 67°05' E 014°02'2 1.7
2016-Jul-22 09:33N 67°06' E 013°59'2 2.2
2016-Jul-22 08:33N 67°08' E 013°59'1 1.5
2016-Jul-22 07:33N 67°07' E 013°59'1 0.5
2016-Jul-22 04:33N 67°08' E 013°59'0 0.0
2016-Jul-22 03:33N 67°08' E 013°59'0 0.0
2016-Jul-22 02:33N 67°08' E 013°59'0 0.0
2016-Jul-22 01:33N 67°08' E 013°59'0 0.0
2016-Jul-22 00:33N 67°08' E 013°59'0 0.0
2016-Jul-21 23:33N 67°08' E 013°59'0 0.0
2016-Jul-21 22:33N 67°08' E 013°59'0 0.0
2016-Jul-21 21:33N 67°08' E 013°59'0 0.0
2016-Jul-21 20:33N 67°08' E 013°59'0 0.0
2016-Jul-21 19:33N 67°08' E 013°59'3 2.8
2016-Jul-21 18:20N 67°05' E 014°03'2 3.2
2016-Jul-21 17:33N 67°07' E 013°59'2 2.0
2016-Jul-21 16:33N 67°05' E 014°00'3 3.0
2016-Jul-21 15:33N 67°08' E 013°59'3 3.4
2016-Jul-21 14:33N 67°05' E 014°02'1 0.8
2016-Jul-21 13:33N 67°05' E 014°04'4 3.9
2016-Jul-21 12:33N 67°08' E 013°59'0 0.0
2016-Jul-21 11:33N 67°08' E 013°59'2 2.3
2016-Jul-21 10:33N 67°06' E 014°00'1 0.6
2016-Jul-21 09:33N 67°06' E 013°59'2 2.3
2016-Jul-21 08:33N 67°08' E 013°59'2 1.6
2016-Jul-21 07:33N 67°07' E 013°59'2 1.0
2016-Jul-21 05:30N 67°05' E 014°02'3 3.7
2016-Jul-21 04:33N 67°08' E 013°59'0 0.0
2016-Jul-21 03:33N 67°08' E 013°59'0 0.0
2016-Jul-21 02:33N 67°08' E 013°59'0 0.0
2016-Jul-21 01:34N 67°08' E 013°59'0 0.0
2016-Jul-21 00:33N 67°08' E 013°59'0 0.0
2016-Jul-20 23:33N 67°08' E 013°59'0 0.0
2016-Jul-20 22:33N 67°08' E 013°59'0 0.0
2016-Jul-20 21:28N 67°08' E 013°59'0 0.0
2016-Jul-20 19:25N 67°08' E 013°59'3 3.0
2016-Jul-20 18:16N 67°05' E 014°01'2 2.7
2016-Jul-20 17:30N 67°07' E 013°58'2 1.5
2016-Jul-20 16:31N 67°05' E 013°60'1 0.3
2016-Jul-20 13:14N 67°06' E 013°58'2 2.9
2016-Jul-20 12:33N 67°08' E 013°59'0 0.0
2016-Jul-20 11:31N 67°08' E 013°59'2 1.0
2016-Jul-20 09:32N 67°06' E 013°58'2 1.9
2016-Jul-20 08:32N 67°08' E 013°59'1 1.4
2016-Jul-20 07:33N 67°07' E 013°59'2 1.1
2016-Jul-20 05:31N 67°05' E 014°02'3 3.6
2016-Jul-20 04:33N 67°08' E 013°59'0 0.0
2016-Jul-20 03:33N 67°08' E 013°59'0 0.0
2016-Jul-20 02:33N 67°08' E 013°59'0 0.0
2016-Jul-20 01:33N 67°08' E 013°59'0 0.0
2016-Jul-20 00:33N 67°08' E 013°59'0 0.0
2016-Jul-19 23:33N 67°08' E 013°59'0 0.0
2016-Jul-19 22:33N 67°08' E 013°59'0 0.0
2016-Jul-19 21:33N 67°08' E 013°59'0 0.0
2016-Jul-19 20:33N 67°08' E 013°59'0 0.0
2016-Jul-19 19:33N 67°08' E 013°59'3 3.0
2016-Jul-19 18:29N 67°05' E 014°03'2 1.7
2016-Jul-19 17:33N 67°06' E 013°59'1 0.6
2016-Jul-19 16:33N 67°05' E 014°00'3 2.1
2016-Jul-19 15:10N 67°08' E 013°59'3 1.7
2016-Jul-19 13:23N 67°05' E 013°60'3 3.6
2016-Jul-19 12:33N 67°08' E 013°59'0 0.0
2016-Jul-19 11:33N 67°08' E 013°59'3 3.3
2016-Jul-19 10:32N 67°05' E 014°01'1 1.3
2016-Jul-19 09:33N 67°06' E 013°59'2 2.4
2016-Jul-19 08:33N 67°08' E 013°59'1 1.4
2016-Jul-19 07:33N 67°07' E 013°59'1 0.5
2016-Jul-19 04:33N 67°08' E 013°59'0 0.0
2016-Jul-19 03:33N 67°08' E 013°59'0 0.0
2016-Jul-19 02:33N 67°08' E 013°59'0 0.0
2016-Jul-19 01:33N 67°08' E 013°59'0 0.0
2016-Jul-19 00:33N 67°08' E 013°59'0 0.0
2016-Jul-18 23:33N 67°08' E 013°59'0 0.0
2016-Jul-18 22:33N 67°08' E 013°59'0 0.0
2016-Jul-18 21:33N 67°08' E 013°59'0 0.0
2016-Jul-18 20:33N 67°08' E 013°59'0 0.0
2016-Jul-18 19:33N 67°08' E 013°59'4 3.9
2016-Jul-18 18:30N 67°05' E 014°04'3 2.7
2016-Jul-18 17:33N 67°06' E 013°59'1 1.5
2016-Jul-18 16:33N 67°05' E 014°01'3 3.2
2016-Jul-18 15:33N 67°08' E 013°59'3 3.2
2016-Jul-18 14:32N 67°05' E 014°01'1 1.2
2016-Jul-18 13:28N 67°04' E 014°04'4 4.6
2016-Jul-18 12:33N 67°08' E 013°59'4 2.1
2016-Jul-18 10:33N 67°04' E 014°04'3 2.7
2016-Jul-18 09:33N 67°06' E 013°59'2 2.2
2016-Jul-18 08:33N 67°08' E 013°59'2 1.8
2016-Jul-18 07:33N 67°06' E 013°59'2 1.0
2016-Jul-18 05:30N 67°05' E 014°03'3 3.6
2016-Jul-18 04:33N 67°08' E 013°59'0 0.0
2016-Jul-18 03:33N 67°08' E 013°59'0 0.0
2016-Jul-18 02:33N 67°08' E 013°59'0 0.0
2016-Jul-18 01:33N 67°08' E 013°59'0 0.0
2016-Jul-18 00:33N 67°08' E 013°59'0 0.0
2016-Jul-17 23:33N 67°08' E 013°59'0 0.0
2016-Jul-17 22:33N 67°08' E 013°59'0 0.0
2016-Jul-17 21:33N 67°08' E 013°59'0 0.0
2016-Jul-17 20:33N 67°08' E 013°59'0 0.0
2016-Jul-17 19:33N 67°08' E 013°59'3 1.6
2016-Jul-17 17:23N 67°05' E 014°02'2 2.9
2016-Jul-17 16:33N 67°07' E 013°59'2 1.3
2016-Jul-17 15:07N 67°05' E 014°00'3 5.3
2016-Jul-17 14:33N 67°08' E 013°59'2 2.0
2016-Jul-17 13:33N 67°06' E 013°59'1 0.2
2016-Jul-17 08:13N 67°05' E 014°00'2 3.4
2016-Jul-17 07:33N 67°07' E 013°59'2 0.2
2016-Jul-16 17:21N 67°05' E 014°00'1 0.6
2016-Jul-16 15:34N 67°06' E 013°58'0 0.1
2016-Jul-16 09:32N 67°06' E 013°59'2 2.4
2016-Jul-16 08:33N 67°08' E 013°59'2 1.1
2016-Jul-16 06:31N 67°06' E 013°59'2 1.1
2016-Jul-16 04:27N 67°08' E 013°59'0 0.0
2016-Jul-15 21:13N 67°08' E 013°59'0 0.0
2016-Jul-15 19:26N 67°08' E 013°59'2 1.7
2016-Jul-15 18:07N 67°06' E 013°59'0 0.6
2016-Jul-15 17:31N 67°06' E 013°59'1 0.3
2016-Jul-15 15:27N 67°06' E 013°59'0 0.2
2016-Jul-15 13:21N 67°05' E 013°60'1 0.2
2016-Jul-15 09:33N 67°06' E 013°59'1 0.5
2016-Jul-15 07:32N 67°07' E 013°59'2 1.0
2016-Jul-15 05:30N 67°05' E 014°02'3 3.6
2016-Jul-15 04:33N 67°08' E 013°59'0 0.0
2016-Jul-15 03:33N 67°08' E 013°59'0 0.0
2016-Jul-15 02:33N 67°08' E 013°59'0 0.0
2016-Jul-15 01:33N 67°08' E 013°59'0 0.0
2016-Jul-15 00:33N 67°08' E 013°59'0 0.0
2016-Jul-14 23:33N 67°08' E 013°59'0 0.0
2016-Jul-14 22:33N 67°08' E 013°59'0 0.0
2016-Jul-14 21:33N 67°08' E 013°59'0 0.0
2016-Jul-14 20:33N 67°08' E 013°59'0 0.0
2016-Jul-14 19:33N 67°08' E 013°59'4 4.0
2016-Jul-14 18:33N 67°05' E 014°04'3 2.6
2016-Jul-14 17:33N 67°06' E 013°59'1 1.4
2016-Jul-14 16:33N 67°05' E 014°00'3 3.1
2016-Jul-14 15:33N 67°08' E 013°59'3 3.1
2016-Jul-14 14:32N 67°05' E 014°03'1 0.8
2016-Jul-14 13:33N 67°05' E 014°04'4 4.0
2016-Jul-14 12:33N 67°08' E 013°59'0 0.0
2016-Jul-14 11:33N 67°08' E 013°59'2 2.4
2016-Jul-14 10:33N 67°06' E 013°59'  
Track history (hours):
 
Tides and Currents Weather Stations Pressure Air Temp Water Temp Dewpoint Dewpoint Depression Visibility Wind Speed Wind Dir Waves Ship Positions

Gildeskaal

Last reported at 2016-Jul-24 10:31 UTC. Time now 2016-Jul-24 10:44 UTC.
Position N 67°04' E 014°04'.

Length 52 m; draft 3.2 m.

Type: Ship. MMSI: 259680000.

Date/timePositionNaut miles runAvg speedWind from/ knotsBaromVisibWave heightAir tempDewpointWater temp
2016-Jul-24 10:31N 67°04' E 014°04'0 0.0
2016-Jul-24 09:20N 67°04' E 014°04'1 1.0
2016-Jul-24 08:20N 67°05' E 014°02'2 2.9
2016-Jul-24 07:33N 67°07' E 013°59'2 0.2
2016-Jul-23 17:33N 67°05' E 014°03'1 0.7
2016-Jul-23 16:27N 67°05' E 014°01'2 2.0
2016-Jul-23 15:33N 67°06' E 013°58'1 0.2
2016-Jul-23 09:33N 67°07' E 013°59'1 0.8
2016-Jul-23 08:32N 67°08' E 013°59'3 2.6
2016-Jul-23 07:33N 67°06' E 013°59'1 1.3
2016-Jul-23 06:30N 67°05' E 014°02'3 1.8
2016-Jul-23 04:33N 67°08' E 013°59'0 0.0
2016-Jul-23 03:33N 67°08' E 013°59'0 0.0
2016-Jul-23 02:33N 67°08' E 013°59'0 0.0
2016-Jul-23 01:33N 67°08' E 013°59'0 0.0
2016-Jul-23 00:33N 67°08' E 013°59'0 0.0
2016-Jul-22 23:33N 67°08' E 013°59'0 0.0
2016-Jul-22 22:33N 67°08' E 013°59'0 0.0
2016-Jul-22 21:33N 67°08' E 013°59'0 0.0
2016-Jul-22 20:33N 67°08' E 013°59'0 0.0
2016-Jul-22 19:33N 67°08' E 013°59'4 3.8
2016-Jul-22 18:33N 67°05' E 014°04'3 2.9
2016-Jul-22 17:33N 67°07' E 013°59'2 0.8
2016-Jul-22 15:33N 67°05' E 013°59'1 0.8
2016-Jul-22 14:33N 67°05' E 014°01'1 0.8
2016-Jul-22 13:33N 67°05' E 014°03'3 3.4
2016-Jul-22 12:33N 67°08' E 013°59'0 0.0
2016-Jul-22 11:33N 67°08' E 013°59'3 3.3
2016-Jul-22 10:32N 67°05' E 014°02'2 1.7
2016-Jul-22 09:33N 67°06' E 013°59'2 2.2
2016-Jul-22 08:33N 67°08' E 013°59'1 1.5
2016-Jul-22 07:33N 67°07' E 013°59'1 0.5
2016-Jul-22 04:33N 67°08' E 013°59'0 0.0
2016-Jul-22 03:33N 67°08' E 013°59'0 0.0
2016-Jul-22 02:33N 67°08' E 013°59'0 0.0
2016-Jul-22 01:33N 67°08' E 013°59'0 0.0
2016-Jul-22 00:33N 67°08' E 013°59'0 0.0
2016-Jul-21 23:33N 67°08' E 013°59'0 0.0
2016-Jul-21 22:33N 67°08' E 013°59'0 0.0
2016-Jul-21 21:33N 67°08' E 013°59'0 0.0
2016-Jul-21 20:33N 67°08' E 013°59'0 0.0
2016-Jul-21 19:33N 67°08' E 013°59'3 2.8
2016-Jul-21 18:20N 67°05' E 014°03'2 3.2
2016-Jul-21 17:33N 67°07' E 013°59'2 2.0
2016-Jul-21 16:33N 67°05' E 014°00'3 3.0
2016-Jul-21 15:33N 67°08' E 013°59'3 3.4
2016-Jul-21 14:33N 67°05' E 014°02'1 0.8
2016-Jul-21 13:33N 67°05' E 014°04'4 3.9
2016-Jul-21 12:33N 67°08' E 013°59'0 0.0
2016-Jul-21 11:33N 67°08' E 013°59'2 2.3
2016-Jul-21 10:33N 67°06' E 014°00'1 0.6
2016-Jul-21 09:33N 67°06' E 013°59'2 2.3
2016-Jul-21 08:33N 67°08' E 013°59'2 1.6
2016-Jul-21 07:33N 67°07' E 013°59'2 1.0
2016-Jul-21 05:30N 67°05' E 014°02'3 3.7
2016-Jul-21 04:33N 67°08' E 013°59'0 0.0
2016-Jul-21 03:33N 67°08' E 013°59'0 0.0
2016-Jul-21 02:33N 67°08' E 013°59'0 0.0
2016-Jul-21 01:34N 67°08' E 013°59'0 0.0
2016-Jul-21 00:33N 67°08' E 013°59'0 0.0
2016-Jul-20 23:33N 67°08' E 013°59'0 0.0
2016-Jul-20 22:33N 67°08' E 013°59'0 0.0
2016-Jul-20 21:28N 67°08' E 013°59'0 0.0
2016-Jul-20 19:25N 67°08' E 013°59'3 3.0
2016-Jul-20 18:16N 67°05' E 014°01'2 2.7
2016-Jul-20 17:30N 67°07' E 013°58'2 1.5
2016-Jul-20 16:31N 67°05' E 013°60'1 0.3
2016-Jul-20 13:14N 67°06' E 013°58'2 2.9
2016-Jul-20 12:33N 67°08' E 013°59'0 0.0
2016-Jul-20 11:31N 67°08' E 013°59'2 1.0
2016-Jul-20 09:32N 67°06' E 013°58'2 1.9
2016-Jul-20 08:32N 67°08' E 013°59'1 1.4
2016-Jul-20 07:33N 67°07' E 013°59'2 1.1
2016-Jul-20 05:31N 67°05' E 014°02'3 3.6
2016-Jul-20 04:33N 67°08' E 013°59'0 0.0
2016-Jul-20 03:33N 67°08' E 013°59'0 0.0
2016-Jul-20 02:33N 67°08' E 013°59'0 0.0
2016-Jul-20 01:33N 67°08' E 013°59'0 0.0
2016-Jul-20 00:33N 67°08' E 013°59'0 0.0
2016-Jul-19 23:33N 67°08' E 013°59'0 0.0
2016-Jul-19 22:33N 67°08' E 013°59'0 0.0
2016-Jul-19 21:33N 67°08' E 013°59'0 0.0
2016-Jul-19 20:33N 67°08' E 013°59'0 0.0
2016-Jul-19 19:33N 67°08' E 013°59'3 3.0
2016-Jul-19 18:29N 67°05' E 014°03'2 1.7
2016-Jul-19 17:33N 67°06' E 013°59'1 0.6
2016-Jul-19 16:33N 67°05' E 014°00'3 2.1
2016-Jul-19 15:10N 67°08' E 013°59'3 1.7
2016-Jul-19 13:23N 67°05' E 013°60'3 3.6
2016-Jul-19 12:33N 67°08' E 013°59'0 0.0
2016-Jul-19 11:33N 67°08' E 013°59'3 3.3
2016-Jul-19 10:32N 67°05' E 014°01'1 1.3
2016-Jul-19 09:33N 67°06' E 013°59'2 2.4
2016-Jul-19 08:33N 67°08' E 013°59'1 1.4
2016-Jul-19 07:33N 67°07' E 013°59'1 0.5
2016-Jul-19 04:33N 67°08' E 013°59'0 0.0
2016-Jul-19 03:33N 67°08' E 013°59'0 0.0
2016-Jul-19 02:33N 67°08' E 013°59'0 0.0
2016-Jul-19 01:33N 67°08' E 013°59'0 0.0
2016-Jul-19 00:33N 67°08' E 013°59'0 0.0
2016-Jul-18 23:33N 67°08' E 013°59'0 0.0
2016-Jul-18 22:33N 67°08' E 013°59'0 0.0
2016-Jul-18 21:33N 67°08' E 013°59'0 0.0
2016-Jul-18 20:33N 67°08' E 013°59'0 0.0
2016-Jul-18 19:33N 67°08' E 013°59'4 3.9
2016-Jul-18 18:30N 67°05' E 014°04'3 2.7
2016-Jul-18 17:33N 67°06' E 013°59'1 1.5
2016-Jul-18 16:33N 67°05' E 014°01'3 3.2
2016-Jul-18 15:33N 67°08' E 013°59'3 3.2
2016-Jul-18 14:32N 67°05' E 014°01'1 1.2
2016-Jul-18 13:28N 67°04' E 014°04'4 4.6
2016-Jul-18 12:33N 67°08' E 013°59'4 2.1
2016-Jul-18 10:33N 67°04' E 014°04'3 2.7
2016-Jul-18 09:33N 67°06' E 013°59'2 2.2
2016-Jul-18 08:33N 67°08' E 013°59'2 1.8
2016-Jul-18 07:33N 67°06' E 013°59'2 1.0
2016-Jul-18 05:30N 67°05' E 014°03'3 3.6
2016-Jul-18 04:33N 67°08' E 013°59'0 0.0
2016-Jul-18 03:33N 67°08' E 013°59'0 0.0
2016-Jul-18 02:33N 67°08' E 013°59'0 0.0
2016-Jul-18 01:33N 67°08' E 013°59'0 0.0
2016-Jul-18 00:33N 67°08' E 013°59'0 0.0
2016-Jul-17 23:33N 67°08' E 013°59'0 0.0
2016-Jul-17 22:33N 67°08' E 013°59'0 0.0
2016-Jul-17 21:33N 67°08' E 013°59'0 0.0
2016-Jul-17 20:33N 67°08' E 013°59'0 0.0
2016-Jul-17 19:33N 67°08' E 013°59'3 1.6
2016-Jul-17 17:23N 67°05' E 014°02'2 2.9
2016-Jul-17 16:33N 67°07' E 013°59'2 1.3
2016-Jul-17 15:07N 67°05' E 014°00'3 5.3
2016-Jul-17 14:33N 67°08' E 013°59'2 2.0
2016-Jul-17 13:33N 67°06' E 013°59'1 0.2
2016-Jul-17 08:13N 67°05' E 014°00'2 3.4
2016-Jul-17 07:33N 67°07' E 013°59'2 0.2
2016-Jul-16 17:21N 67°05' E 014°00'1 0.6
2016-Jul-16 15:34N 67°06' E 013°58'0 0.1
2016-Jul-16 09:32N 67°06' E 013°59'2 2.4
2016-Jul-16 08:33N 67°08' E 013°59'2 1.1
2016-Jul-16 06:31N 67°06' E 013°59'2 1.1
2016-Jul-16 04:27N 67°08' E 013°59'0 0.0
2016-Jul-15 21:13N 67°08' E 013°59'0 0.0
2016-Jul-15 19:26N 67°08' E 013°59'2 1.7
2016-Jul-15 18:07N 67°06' E 013°59'0 0.6
2016-Jul-15 17:31N 67°06' E 013°59'1 0.3
2016-Jul-15 15:27N 67°06' E 013°59'0 0.2
2016-Jul-15 13:21N 67°05' E 013°60'1 0.2
2016-Jul-15 09:33N 67°06' E 013°59'1 0.5
2016-Jul-15 07:32N 67°07' E 013°59'2 1.0
2016-Jul-15 05:30N 67°05' E 014°02'3 3.6
2016-Jul-15 04:33N 67°08' E 013°59'0 0.0
2016-Jul-15 03:33N 67°08' E 013°59'0 0.0
2016-Jul-15 02:33N 67°08' E 013°59'0 0.0
2016-Jul-15 01:33N 67°08' E 013°59'0 0.0
2016-Jul-15 00:33N 67°08' E 013°59'0 0.0
2016-Jul-14 23:33N 67°08' E 013°59'0 0.0
2016-Jul-14 22:33N 67°08' E 013°59'0 0.0
2016-Jul-14 21:33N 67°08' E 013°59'0 0.0
2016-Jul-14 20:33N 67°08' E 013°59'0 0.0
2016-Jul-14 19:33N 67°08' E 013°59'4 4.0
2016-Jul-14 18:33N 67°05' E 014°04'3 2.6
2016-Jul-14 17:33N 67°06' E 013°59'1 1.4
2016-Jul-14 16:33N 67°05' E 014°00'3 3.1
2016-Jul-14 15:33N 67°08' E 013°59'3 3.1
2016-Jul-14 14:32N 67°05' E 014°03'1 0.8
2016-Jul-14 13:33N 67°05' E 014°04'4 4.0
2016-Jul-14 12:33N 67°08' E 013°59'0 0.0
2016-Jul-14 11:33N 67°08' E 013°59'2 2.4
2016-Jul-14 10:33N 67°06' E 013°59'  

Dump ship's entire track history